createdAt,value
2023-05-02T00:00:42.470Z,513.00
2023-05-02T00:01:42.534Z,507.00
2023-05-02T00:02:42.706Z,507.00
2023-05-02T00:03:42.457Z,503.00
2023-05-02T00:04:42.744Z,506.00
2023-05-02T00:05:42.470Z,507.00
2023-05-02T00:06:42.506Z,508.00
2023-05-02T00:07:42.382Z,506.00
2023-05-02T00:08:42.377Z,506.00
2023-05-02T00:09:42.493Z,504.00
2023-05-02T00:10:42.438Z,507.00
2023-05-02T00:11:42.351Z,511.00
2023-05-02T00:12:42.385Z,506.00
2023-05-02T00:13:42.438Z,500.00
2023-05-02T00:14:42.412Z,504.00
2023-05-02T00:15:42.439Z,503.00
2023-05-02T00:16:42.358Z,510.00
2023-05-02T00:17:42.420Z,506.00
2023-05-02T00:18:42.334Z,508.00
2023-05-02T00:19:42.334Z,502.00
2023-05-02T00:20:42.330Z,502.00
2023-05-02T00:21:42.329Z,504.00
2023-05-02T00:22:42.302Z,505.00
2023-05-02T00:23:42.350Z,502.00
2023-05-02T00:24:42.352Z,506.00
2023-05-02T00:25:42.327Z,505.00
2023-05-02T00:26:42.271Z,504.00
2023-05-02T00:27:42.289Z,500.00
2023-05-02T00:28:42.255Z,505.00
2023-05-02T00:29:42.314Z,506.00
2023-05-02T00:30:42.359Z,501.00
2023-05-02T00:31:42.259Z,509.00
2023-05-02T00:32:42.316Z,506.00
2023-05-02T00:33:42.298Z,505.00
2023-05-02T00:34:42.302Z,505.00
2023-05-02T00:35:42.205Z,506.00
2023-05-02T00:36:42.236Z,503.00
2023-05-02T00:37:43.182Z,501.00
2023-05-02T00:38:42.213Z,501.00
2023-05-02T00:39:42.199Z,506.00
2023-05-02T00:40:42.199Z,506.00
2023-05-02T00:41:42.167Z,502.00
2023-05-02T00:42:42.164Z,501.00
2023-05-02T00:43:42.157Z,502.00
2023-05-02T00:44:42.165Z,502.00
2023-05-02T00:45:42.188Z,502.00
2023-05-02T00:46:42.161Z,505.00
2023-05-02T00:47:42.133Z,507.00
2023-05-02T00:48:42.161Z,504.00
2023-05-02T00:49:42.235Z,505.00
2023-05-02T00:50:42.334Z,504.00
2023-05-02T00:51:42.336Z,505.00
2023-05-02T00:52:42.280Z,501.00
2023-05-02T00:53:42.397Z,509.00
2023-05-02T00:54:42.484Z,505.00
2023-05-02T00:55:42.346Z,503.00
2023-05-02T00:56:42.452Z,503.00
2023-05-02T00:57:42.432Z,500.00
2023-05-02T00:58:42.481Z,505.00
2023-05-02T00:59:42.503Z,501.00
2023-05-02T01:00:43.545Z,504.00
2023-05-02T01:01:42.793Z,501.00
2023-05-02T01:02:42.744Z,501.00
2023-05-02T01:03:42.814Z,508.00
2023-05-02T01:04:42.703Z,510.00
2023-05-02T01:05:42.747Z,509.00
2023-05-02T01:06:42.844Z,507.00
2023-05-02T01:07:42.791Z,513.00
2023-05-02T01:08:42.815Z,507.00
2023-05-02T01:09:42.896Z,511.00
2023-05-02T01:10:42.850Z,510.00
2023-05-02T01:11:42.934Z,511.00
2023-05-02T01:12:42.958Z,506.00
2023-05-02T01:13:43.027Z,503.00
2023-05-02T01:14:43.039Z,508.00
2023-05-02T01:15:43.129Z,504.00
2023-05-02T01:16:43.133Z,506.00
2023-05-02T01:17:43.159Z,507.00
2023-05-02T01:18:43.167Z,511.00
2023-05-02T01:19:43.215Z,507.00
2023-05-02T01:20:43.203Z,504.00
2023-05-02T01:21:43.291Z,507.00
2023-05-02T01:22:43.289Z,507.00
2023-05-02T01:23:43.312Z,505.00
2023-05-02T01:24:43.395Z,506.00
2023-05-02T01:25:43.428Z,508.00
2023-05-02T01:26:43.572Z,507.00
2023-05-02T01:27:43.450Z,510.00
2023-05-02T01:28:43.543Z,511.00
2023-05-02T01:29:43.500Z,501.00
2023-05-02T01:30:43.550Z,508.00
2023-05-02T01:31:43.776Z,510.00
2023-05-02T01:32:43.650Z,506.00
2023-05-02T01:33:43.724Z,506.00
2023-05-02T01:34:43.752Z,507.00
2023-05-02T01:35:43.861Z,510.00
2023-05-02T01:36:43.799Z,507.00
2023-05-02T01:37:43.879Z,504.00
2023-05-02T01:38:43.865Z,505.00
2023-05-02T01:39:43.904Z,508.00
2023-05-02T01:40:43.940Z,506.00
2023-05-02T01:41:43.987Z,504.00
2023-05-02T01:42:44.019Z,501.00
2023-05-02T01:46:35.568Z,500.00
2023-05-02T01:47:23.051Z,500.00
2023-05-02T01:48:22.328Z,500.00
2023-05-02T01:49:22.080Z,500.00
2023-05-02T01:50:22.083Z,500.00
2023-05-02T01:51:22.062Z,500.00
2023-05-02T01:52:21.973Z,500.00
2023-05-02T01:53:22.000Z,502.00
2023-05-02T01:54:21.992Z,503.00
2023-05-02T01:55:21.939Z,500.00
2023-05-02T01:56:21.999Z,502.00
2023-05-02T01:57:21.946Z,502.00
2023-05-02T01:58:21.995Z,502.00
2023-05-02T01:59:21.928Z,500.00
2023-05-02T02:00:21.971Z,500.00
2023-05-02T02:01:21.981Z,501.00
2023-05-02T02:02:21.877Z,502.00
2023-05-02T02:03:21.964Z,500.00
2023-05-02T02:04:22.075Z,502.00
2023-05-02T02:05:21.955Z,506.00
2023-05-02T02:06:22.064Z,508.00
2023-05-02T02:07:22.229Z,503.00
2023-05-02T02:08:22.087Z,503.00
2023-05-02T02:09:22.119Z,505.00
2023-05-02T02:10:22.168Z,508.00
2023-05-02T02:11:22.237Z,504.00
2023-05-02T02:12:22.366Z,502.00
2023-05-02T02:13:22.337Z,505.00
2023-05-02T02:14:22.378Z,506.00
2023-05-02T02:15:22.410Z,505.00
2023-05-02T02:16:22.486Z,502.00
2023-05-02T02:17:22.466Z,510.00
2023-05-02T02:18:22.592Z,505.00
2023-05-02T02:19:22.597Z,508.00
2023-05-02T02:20:22.629Z,505.00
2023-05-02T02:21:22.656Z,505.00
2023-05-02T02:22:22.763Z,508.00
2023-05-02T02:23:22.739Z,500.00
2023-05-02T02:24:22.858Z,505.00
2023-05-02T02:25:22.840Z,506.00
2023-05-02T02:26:22.934Z,504.00
2023-05-02T02:27:22.940Z,514.00
2023-05-02T02:28:23.073Z,504.00
2023-05-02T02:29:23.047Z,510.00
2023-05-02T02:30:23.091Z,504.00
2023-05-02T02:31:23.237Z,511.00
2023-05-02T02:32:23.263Z,508.00
2023-05-02T02:33:23.246Z,502.00
2023-05-02T02:34:23.323Z,507.00
2023-05-02T02:35:23.278Z,508.00
2023-05-02T02:36:23.453Z,506.00
2023-05-02T02:37:23.438Z,509.00
2023-05-02T02:38:23.604Z,506.00
2023-05-02T02:39:23.662Z,505.00
2023-05-02T02:40:23.534Z,507.00
2023-05-02T02:41:23.603Z,507.00
2023-05-02T02:42:23.616Z,507.00
2023-05-02T02:43:23.768Z,504.00
2023-05-02T02:44:23.717Z,506.00
2023-05-02T02:45:23.792Z,505.00
2023-05-02T02:46:25.940Z,501.00
2023-05-02T02:47:23.860Z,502.00
2023-05-02T02:48:23.915Z,504.00
2023-05-02T02:49:23.923Z,505.00
2023-05-02T02:50:24.010Z,509.00
2023-05-02T02:51:24.036Z,512.00
2023-05-02T02:52:24.197Z,510.00
2023-05-02T02:53:24.124Z,510.00
2023-05-02T02:54:26.814Z,508.00
2023-05-02T02:55:24.150Z,509.00
2023-05-02T02:56:24.212Z,509.00
2023-05-02T02:57:24.185Z,507.00
2023-05-02T02:58:24.149Z,509.00
2023-05-02T02:59:24.173Z,516.00
2023-05-02T03:00:24.119Z,509.00
2023-05-02T03:01:24.215Z,510.00
2023-05-02T03:02:24.123Z,510.00
2023-05-02T03:03:24.173Z,510.00
2023-05-02T03:04:24.077Z,510.00
2023-05-02T03:05:24.141Z,511.00
2023-05-02T03:06:24.081Z,513.00
2023-05-02T03:07:24.061Z,510.00
2023-05-02T03:08:24.047Z,509.00
2023-05-02T03:09:24.075Z,506.00
2023-05-02T03:10:24.066Z,506.00
2023-05-02T03:11:24.055Z,508.00
2023-05-02T03:12:24.028Z,510.00
2023-05-02T03:13:24.030Z,509.00
2023-05-02T03:14:24.036Z,511.00
2023-05-02T03:15:24.093Z,512.00
2023-05-02T03:16:24.039Z,508.00
2023-05-02T03:17:26.163Z,506.00
2023-05-02T03:18:23.980Z,512.00
2023-05-02T03:19:24.106Z,511.00
2023-05-02T03:20:24.055Z,509.00
2023-05-02T03:21:24.155Z,512.00
2023-05-02T03:22:24.163Z,511.00
2023-05-02T03:23:24.212Z,512.00
2023-05-02T03:24:24.310Z,507.00
2023-05-02T03:25:24.274Z,508.00
2023-05-02T03:26:24.466Z,507.00
2023-05-02T03:27:24.391Z,501.00
2023-05-02T03:28:24.547Z,512.00
2023-05-02T03:29:24.563Z,502.00
2023-05-02T03:30:24.530Z,504.00
2023-05-02T03:31:26.408Z,505.00
2023-05-02T03:32:24.637Z,505.00
2023-05-02T03:33:24.668Z,509.00
2023-05-02T03:34:35.740Z,512.00
2023-05-02T03:35:25.054Z,513.00
2023-05-02T03:36:24.890Z,513.00
2023-05-02T03:37:24.913Z,511.00
2023-05-02T03:38:24.881Z,510.00
2023-05-02T03:39:24.767Z,509.00
2023-05-02T03:40:24.822Z,509.00
2023-05-02T03:41:24.684Z,508.00
2023-05-02T03:42:24.748Z,508.00
2023-05-02T03:43:24.750Z,505.00
2023-05-02T03:44:24.841Z,505.00
2023-05-02T03:45:24.898Z,505.00
2023-05-02T03:46:25.059Z,508.00
2023-05-02T03:47:24.965Z,507.00
2023-05-02T03:48:25.040Z,506.00
2023-05-02T03:49:25.042Z,506.00
2023-05-02T03:50:25.171Z,506.00
2023-05-02T03:51:25.172Z,507.00
2023-05-02T03:52:25.254Z,506.00
2023-05-02T03:53:25.199Z,501.00
2023-05-02T03:54:25.282Z,507.00
2023-05-02T03:55:30.363Z,508.00
2023-05-02T03:56:25.325Z,509.00
2023-05-02T03:57:25.301Z,509.00
2023-05-02T03:58:25.315Z,506.00
2023-05-02T03:59:25.332Z,508.00
2023-05-02T04:00:25.391Z,507.00
2023-05-02T04:01:25.338Z,508.00
2023-05-02T04:02:25.403Z,506.00
2023-05-02T04:03:26.579Z,510.00
2023-05-02T04:04:25.318Z,514.00
2023-05-02T04:05:25.287Z,508.00
2023-05-02T04:06:25.369Z,507.00
2023-05-02T04:07:25.329Z,502.00
2023-05-02T04:08:25.331Z,502.00
2023-05-02T04:09:25.490Z,507.00
2023-05-02T04:10:25.231Z,506.00
2023-05-02T04:11:25.218Z,508.00
2023-05-02T04:12:25.228Z,510.00
2023-05-02T04:13:25.211Z,503.00
2023-05-02T04:14:25.265Z,504.00
2023-05-02T04:15:25.206Z,504.00
2023-05-02T04:16:25.223Z,506.00
2023-05-02T04:17:25.244Z,505.00
2023-05-02T04:18:25.149Z,504.00
2023-05-02T04:19:25.252Z,503.00
2023-05-02T04:20:25.156Z,506.00
2023-05-02T04:22:44.359Z,500.00
2023-05-02T04:25:03.283Z,500.00
2023-05-02T04:26:03.321Z,500.00
2023-05-02T04:27:03.165Z,500.00
2023-05-02T04:28:03.255Z,500.00
2023-05-02T04:29:03.112Z,500.00
2023-05-02T04:30:03.662Z,502.00
2023-05-02T04:31:03.194Z,500.00
2023-05-02T04:32:03.340Z,500.00
2023-05-02T04:33:03.100Z,502.00
2023-05-02T04:34:03.074Z,505.00
2023-05-02T04:35:03.055Z,501.00
2023-05-02T04:36:03.043Z,503.00
2023-05-02T04:37:03.057Z,502.00
2023-05-02T04:38:03.094Z,500.00
2023-05-02T04:39:03.015Z,505.00
2023-05-02T04:41:22.403Z,500.00
2023-05-02T04:42:22.521Z,500.00
2023-05-02T04:43:24.295Z,500.00
2023-05-02T04:44:21.999Z,500.00
2023-05-02T04:45:22.226Z,500.00
2023-05-02T04:46:22.016Z,501.00
2023-05-02T04:47:21.970Z,500.00
2023-05-02T04:48:21.967Z,505.00
2023-05-02T04:49:21.923Z,503.00
2023-05-02T04:50:22.036Z,507.00
2023-05-02T04:51:21.915Z,506.00
2023-05-02T04:52:21.905Z,503.00
2023-05-02T04:53:21.921Z,500.00
2023-05-02T04:54:21.946Z,508.00
2023-05-02T04:55:21.925Z,509.00
2023-05-02T04:56:21.979Z,501.00
2023-05-02T04:57:23.327Z,507.00
2023-05-02T04:58:21.848Z,506.00
2023-05-02T04:59:21.902Z,505.00
2023-05-02T05:00:21.852Z,500.00
2023-05-02T05:01:21.897Z,502.00
2023-05-02T05:02:22.065Z,503.00
2023-05-02T05:03:35.063Z,503.00
2023-05-02T05:04:22.333Z,504.00
2023-05-02T05:05:22.173Z,506.00
2023-05-02T05:06:22.221Z,506.00
2023-05-02T05:07:22.007Z,507.00
2023-05-02T05:08:21.925Z,505.00
2023-05-02T05:09:21.836Z,505.00
2023-05-02T05:10:21.914Z,502.00
2023-05-02T05:11:21.898Z,501.00
2023-05-02T05:12:21.756Z,500.00
2023-05-02T05:13:21.935Z,501.00
2023-05-02T05:14:21.923Z,503.00
2023-05-02T05:15:21.833Z,504.00
2023-05-02T05:16:21.897Z,510.00
2023-05-02T05:17:21.729Z,511.00
2023-05-02T05:18:21.888Z,512.00
2023-05-02T05:19:22.691Z,520.00
2023-05-02T05:20:21.691Z,524.00
2023-05-02T05:21:21.731Z,525.00
2023-05-02T05:22:21.694Z,532.00
2023-05-02T05:23:21.717Z,530.00
2023-05-02T05:24:21.696Z,528.00
2023-05-02T05:25:21.824Z,524.00
2023-05-02T05:26:21.830Z,522.00
2023-05-02T05:27:21.851Z,528.00
2023-05-02T05:28:21.932Z,527.00
2023-05-02T05:29:22.014Z,524.00
2023-05-02T05:30:22.006Z,528.00
2023-05-02T05:31:22.127Z,518.00
2023-05-02T05:32:22.167Z,516.00
2023-05-02T05:33:22.772Z,513.00
2023-05-02T05:34:22.540Z,519.00
2023-05-02T05:36:42.240Z,500.00
2023-05-02T05:39:03.543Z,500.00
2023-05-02T05:41:22.842Z,500.00
2023-05-02T05:42:19.726Z,500.00
2023-05-02T05:43:25.212Z,500.00
2023-05-02T05:44:19.579Z,500.00
2023-05-02T05:46:40.393Z,500.00
2023-05-02T05:47:39.219Z,500.00
2023-05-02T05:48:38.706Z,500.00
2023-05-02T05:49:39.085Z,500.00
2023-05-02T05:55:17.958Z,500.00
2023-05-02T05:56:19.616Z,500.00
2023-05-02T05:59:39.639Z,500.00
2023-05-02T06:01:58.637Z,500.00
2023-05-02T06:02:59.465Z,500.00
2023-05-02T06:03:58.759Z,500.00
2023-05-02T06:04:58.378Z,500.00
2023-05-02T06:05:58.561Z,500.00
2023-05-02T06:06:58.720Z,504.00
2023-05-02T06:07:58.566Z,505.00
2023-05-02T06:08:58.335Z,498.00
2023-05-02T06:09:58.746Z,508.00
2023-05-02T06:10:58.853Z,510.00
2023-05-02T06:11:58.560Z,516.00
2023-05-02T06:12:58.571Z,517.00
2023-05-02T06:13:58.527Z,518.00
2023-05-02T06:14:58.435Z,511.00
2023-05-02T06:15:58.665Z,512.00
2023-05-02T06:16:58.471Z,508.00
2023-05-02T06:17:58.684Z,500.00
2023-05-02T06:18:58.413Z,509.00
2023-05-02T06:19:58.812Z,514.00
2023-05-02T06:20:58.540Z,512.00
2023-05-02T06:21:58.448Z,513.00
2023-05-02T06:23:00.499Z,509.00
2023-05-02T06:23:58.613Z,510.00
2023-05-02T06:24:58.549Z,510.00
2023-05-02T06:25:58.864Z,510.00
2023-05-02T06:26:58.649Z,515.00
2023-05-02T06:27:59.972Z,523.00
2023-05-02T06:28:59.174Z,526.00
2023-05-02T06:29:58.981Z,527.00
2023-05-02T06:30:58.477Z,527.00
2023-05-02T06:31:59.845Z,517.00
2023-05-02T06:33:02.174Z,523.00
2023-05-02T06:33:58.747Z,518.00
2023-05-02T06:34:59.923Z,517.00
2023-05-02T06:35:59.985Z,517.00
2023-05-02T06:36:59.045Z,517.00
2023-05-02T06:37:59.549Z,514.00
2023-05-02T06:39:00.300Z,507.00
2023-05-02T06:41:18.624Z,500.00
2023-05-02T06:42:18.621Z,500.00
2023-05-02T06:43:18.270Z,500.00
2023-05-02T06:44:18.295Z,500.00
2023-05-02T06:45:27.999Z,500.00
2023-05-02T06:46:18.837Z,500.00
2023-05-02T06:47:19.368Z,500.00
2023-05-02T06:48:18.915Z,500.00
2023-05-02T06:49:18.292Z,500.00
2023-05-02T06:50:18.199Z,500.00
2023-05-02T06:51:18.102Z,504.00
2023-05-02T06:52:18.522Z,503.00
2023-05-02T06:53:18.298Z,506.00
2023-05-02T06:54:18.380Z,519.00
2023-05-02T06:55:20.110Z,502.00
2023-05-02T06:56:18.106Z,517.00
2023-05-02T06:57:19.186Z,518.00
2023-05-02T06:58:18.306Z,518.00
2023-05-02T06:59:18.113Z,509.00
2023-05-02T07:00:18.579Z,506.00
2023-05-02T07:01:18.237Z,507.00
2023-05-02T07:02:20.096Z,508.00
2023-05-02T07:03:18.252Z,504.00
2023-05-02T07:04:18.319Z,505.00
2023-05-02T07:05:18.226Z,500.00
2023-05-02T07:06:18.333Z,506.00
2023-05-02T07:07:18.279Z,510.00
2023-05-02T07:08:18.433Z,515.00
2023-05-02T07:09:18.173Z,515.00
2023-05-02T07:10:18.173Z,511.00
2023-05-02T07:11:18.536Z,520.00
2023-05-02T07:12:18.188Z,528.00
2023-05-02T07:13:18.173Z,523.00
2023-05-02T07:14:18.518Z,512.00
2023-05-02T07:15:19.398Z,514.00
2023-05-02T07:17:38.149Z,500.00
2023-05-02T07:18:37.330Z,500.00
2023-05-02T07:19:38.299Z,500.00
2023-05-02T07:20:37.857Z,500.00
2023-05-02T07:21:37.113Z,500.00
2023-05-02T07:22:37.334Z,518.00
2023-05-02T07:23:37.055Z,511.00
2023-05-02T07:24:37.108Z,514.00
2023-05-02T07:25:37.073Z,520.00
2023-05-02T07:26:37.225Z,523.00
2023-05-02T07:27:37.430Z,535.00
2023-05-02T07:28:37.806Z,545.00
2023-05-02T07:29:37.107Z,542.00
2023-05-02T07:30:37.019Z,549.00
2023-05-02T07:31:37.115Z,550.00
2023-05-02T07:32:37.134Z,544.00
2023-05-02T07:33:36.996Z,550.00
2023-05-02T07:34:37.059Z,555.00
2023-05-02T07:35:36.978Z,561.00
2023-05-02T07:36:37.041Z,559.00
2023-05-02T07:37:36.993Z,573.00
2023-05-02T07:38:36.971Z,562.00
2023-05-02T07:39:37.402Z,565.00
2023-05-02T07:40:36.979Z,554.00
2023-05-02T07:41:36.977Z,570.00
2023-05-02T07:42:36.966Z,565.00
2023-05-02T07:43:36.941Z,558.00
2023-05-02T07:44:37.037Z,547.00
2023-05-02T07:45:37.078Z,560.00
2023-05-02T07:46:37.144Z,571.00
2023-05-02T07:47:37.778Z,560.00
2023-05-02T07:48:37.240Z,563.00
2023-05-02T07:49:37.261Z,559.00
2023-05-02T07:50:37.268Z,558.00
2023-05-02T07:51:37.345Z,559.00
2023-05-02T07:52:37.466Z,553.00
2023-05-02T07:53:37.420Z,560.00
2023-05-02T07:54:37.460Z,561.00
2023-05-02T07:55:37.474Z,557.00
2023-05-02T07:56:42.457Z,555.00
2023-05-02T07:57:37.627Z,520.00
2023-05-02T07:58:37.536Z,400.00
2023-05-02T07:59:37.559Z,400.00
2023-05-02T08:00:37.589Z,400.00
2023-05-02T08:01:37.534Z,400.00
2023-05-02T08:02:37.659Z,400.00
2023-05-02T08:03:37.769Z,431.00
2023-05-02T08:04:37.591Z,501.00
2023-05-02T08:05:37.505Z,506.00
2023-05-02T08:06:37.726Z,519.00
2023-05-02T08:07:37.597Z,525.00
2023-05-02T08:08:40.358Z,529.00
2023-05-02T08:09:37.454Z,534.00
2023-05-02T08:10:37.536Z,520.00
2023-05-02T08:11:47.457Z,531.00
2023-05-02T08:16:41.808Z,500.00
2023-05-02T08:19:00.250Z,500.00
2023-05-02T08:20:03.519Z,500.00
2023-05-02T08:22:20.079Z,500.00
2023-05-02T08:23:19.009Z,500.00
2023-05-02T08:24:19.718Z,500.00
2023-05-02T08:25:18.708Z,500.00
2023-05-02T08:26:18.601Z,500.00
2023-05-02T08:27:18.725Z,500.00
2023-05-02T08:28:18.958Z,506.00
2023-05-02T08:29:18.587Z,504.00
2023-05-02T08:30:18.572Z,513.00
2023-05-02T08:31:18.673Z,497.00
2023-05-02T08:32:18.736Z,500.00
2023-05-02T08:33:18.631Z,501.00
2023-05-02T08:34:18.689Z,505.00
2023-05-02T08:36:52.216Z,500.00
2023-05-02T08:37:38.081Z,500.00
2023-05-02T08:38:37.590Z,500.00
2023-05-02T08:39:37.461Z,500.00
2023-05-02T08:40:42.133Z,500.00
2023-05-02T08:41:38.543Z,500.00
2023-05-02T08:42:38.591Z,500.00
2023-05-02T08:43:37.450Z,500.00
2023-05-02T08:44:37.450Z,500.00
2023-05-02T08:45:37.521Z,500.00
2023-05-02T08:46:37.537Z,509.00
2023-05-02T08:47:37.840Z,518.00
2023-05-02T08:48:37.415Z,514.00
2023-05-02T08:49:37.512Z,504.00
2023-05-02T08:50:37.689Z,509.00
2023-05-02T08:51:39.216Z,522.00
2023-05-02T08:52:37.409Z,521.00
2023-05-02T08:53:37.355Z,525.00
2023-05-02T08:54:37.334Z,519.00
2023-05-02T08:55:37.364Z,515.00
2023-05-02T08:56:37.316Z,525.00
2023-05-02T08:57:37.314Z,521.00
2023-05-02T08:58:37.366Z,511.00
2023-05-02T08:59:37.269Z,516.00
2023-05-02T09:00:37.310Z,511.00
2023-05-02T09:01:37.358Z,512.00
2023-05-02T09:02:37.287Z,504.00
2023-05-02T09:03:37.318Z,523.00
2023-05-02T09:04:37.340Z,517.00
2023-05-02T09:05:37.292Z,509.00
2023-05-02T09:06:37.424Z,517.00
2023-05-02T09:07:37.467Z,514.00
2023-05-02T09:08:37.473Z,515.00
2023-05-02T09:09:37.342Z,514.00
2023-05-02T09:10:37.399Z,518.00
2023-05-02T09:11:37.389Z,512.00
2023-05-02T09:12:37.477Z,519.00
2023-05-02T09:13:37.444Z,507.00
2023-05-02T09:14:37.444Z,514.00
2023-05-02T09:15:37.503Z,512.00
2023-05-02T09:16:37.722Z,502.00
2023-05-02T09:17:37.596Z,511.00
2023-05-02T09:18:37.521Z,498.00
2023-05-02T09:19:37.569Z,506.00
2023-05-02T09:20:37.549Z,508.00
2023-05-02T09:21:37.613Z,504.00
2023-05-02T09:22:37.630Z,502.00
2023-05-02T09:23:37.774Z,501.00
2023-05-02T09:24:37.787Z,501.00
2023-05-02T09:25:37.825Z,502.00
2023-05-02T09:26:38.117Z,511.00
2023-05-02T09:27:38.860Z,510.00
2023-05-02T09:28:38.702Z,514.00
2023-05-02T09:29:37.912Z,520.00
2023-05-02T09:30:38.210Z,514.00
2023-05-02T09:31:55.089Z,514.00
2023-05-02T09:32:39.887Z,514.00
2023-05-02T09:34:57.854Z,500.00
2023-05-02T09:35:57.760Z,500.00
2023-05-02T09:36:57.993Z,500.00
2023-05-02T09:37:57.585Z,500.00
2023-05-02T09:38:57.113Z,500.00
2023-05-02T09:39:56.984Z,500.00
2023-05-02T09:40:58.002Z,500.00
2023-05-02T09:41:57.874Z,506.00
2023-05-02T09:42:57.074Z,512.00
2023-05-02T09:43:57.264Z,504.00
2023-05-02T09:44:57.444Z,503.00
2023-05-02T09:47:16.999Z,500.00
2023-05-02T09:48:16.497Z,500.00
2023-05-02T09:49:16.238Z,500.00
2023-05-02T09:50:16.020Z,500.00
2023-05-02T09:51:16.054Z,500.00
2023-05-02T09:52:16.054Z,504.00
2023-05-02T09:53:16.195Z,500.00
2023-05-02T09:54:16.170Z,527.00
2023-05-02T09:55:15.993Z,533.00
2023-05-02T09:56:16.003Z,570.00
2023-05-02T09:57:16.129Z,631.00
2023-05-02T09:58:16.030Z,759.00
2023-05-02T09:59:16.242Z,829.00
2023-05-02T10:00:16.043Z,866.00
2023-05-02T10:01:15.978Z,913.00
2023-05-02T10:02:15.939Z,855.00
2023-05-02T10:03:15.994Z,908.00
2023-05-02T10:04:16.083Z,931.00
2023-05-02T10:05:15.946Z,939.00
2023-05-02T10:06:16.476Z,847.00
2023-05-02T10:07:15.942Z,874.00
2023-05-02T10:08:16.647Z,903.00
2023-05-02T10:09:19.616Z,961.00
2023-05-02T10:10:15.904Z,962.00
2023-05-02T10:11:16.329Z,966.00
2023-05-02T10:12:16.205Z,980.00
2023-05-02T10:13:27.194Z,1009.00
2023-05-02T10:14:16.074Z,967.00
2023-05-02T10:15:16.281Z,973.00
2023-05-02T10:16:15.886Z,999.00
2023-05-02T10:17:16.275Z,1036.00
2023-05-02T10:18:16.179Z,1102.00
2023-05-02T10:19:16.324Z,1109.00
2023-05-02T10:20:16.179Z,1040.00
2023-05-02T10:21:15.995Z,1021.00
2023-05-02T10:22:16.111Z,1022.00
2023-05-02T10:23:16.334Z,817.00
2023-05-02T10:24:16.083Z,629.00
2023-05-02T10:25:16.121Z,628.00
2023-05-02T10:26:16.326Z,644.00
2023-05-02T10:27:16.342Z,690.00
2023-05-02T10:28:16.805Z,713.00
2023-05-02T10:29:16.371Z,717.00
2023-05-02T10:30:16.451Z,742.00
2023-05-02T10:31:16.843Z,757.00
2023-05-02T10:32:16.520Z,763.00
2023-05-02T10:33:16.829Z,823.00
2023-05-02T10:34:16.654Z,817.00
2023-05-02T10:35:16.684Z,806.00
2023-05-02T10:36:16.845Z,816.00
2023-05-02T10:37:16.877Z,832.00
2023-05-02T10:38:16.888Z,796.00
2023-05-02T10:39:16.983Z,810.00
2023-05-02T10:40:17.023Z,822.00
2023-05-02T10:41:17.056Z,784.00
2023-05-02T10:42:17.055Z,792.00
2023-05-02T10:43:17.091Z,792.00
2023-05-02T10:44:17.061Z,736.00
2023-05-02T10:45:17.131Z,762.00
2023-05-02T10:46:17.109Z,744.00
2023-05-02T10:47:17.040Z,745.00
2023-05-02T10:48:17.039Z,724.00
2023-05-02T10:49:17.091Z,743.00
2023-05-02T10:50:17.162Z,746.00
2023-05-02T10:51:17.026Z,768.00
2023-05-02T10:52:17.075Z,771.00
2023-05-02T10:53:17.194Z,769.00
2023-05-02T10:54:17.205Z,751.00
2023-05-02T10:55:17.238Z,755.00
2023-05-02T10:56:17.330Z,746.00
2023-05-02T10:57:17.368Z,768.00
2023-05-02T10:58:17.501Z,762.00
2023-05-02T10:59:17.612Z,762.00
2023-05-02T11:00:17.505Z,764.00
2023-05-02T11:01:17.863Z,757.00
2023-05-02T11:02:17.788Z,754.00
2023-05-02T11:03:17.829Z,745.00
2023-05-02T11:04:17.793Z,755.00
2023-05-02T11:05:17.829Z,745.00
2023-05-02T11:06:18.035Z,725.00
2023-05-02T11:07:17.986Z,731.00
2023-05-02T11:08:20.138Z,688.00
2023-05-02T11:09:18.008Z,661.00
2023-05-02T11:10:18.032Z,648.00
2023-05-02T11:11:18.085Z,647.00
2023-05-02T11:12:18.240Z,637.00
2023-05-02T11:13:18.165Z,648.00
2023-05-02T11:14:18.564Z,659.00
2023-05-02T11:15:18.199Z,670.00
2023-05-02T11:16:18.600Z,707.00
2023-05-02T11:17:18.076Z,683.00
2023-05-02T11:18:18.047Z,735.00
2023-05-02T11:19:18.990Z,725.00
2023-05-02T11:20:17.929Z,717.00
2023-05-02T11:21:17.932Z,721.00
2023-05-02T11:22:17.903Z,729.00
2023-05-02T11:23:17.898Z,740.00
2023-05-02T11:24:17.924Z,744.00
2023-05-02T11:25:17.877Z,720.00
2023-05-02T11:26:17.880Z,697.00
2023-05-02T11:27:17.844Z,714.00
2023-05-02T11:28:17.885Z,718.00
2023-05-02T11:29:18.050Z,702.00
2023-05-02T11:30:17.885Z,711.00
2023-05-02T11:31:17.869Z,706.00
2023-05-02T11:32:17.927Z,736.00
2023-05-02T11:33:17.945Z,713.00
2023-05-02T11:34:17.959Z,704.00
2023-05-02T11:35:17.915Z,683.00
2023-05-02T11:36:17.802Z,686.00
2023-05-02T11:37:17.794Z,681.00
2023-05-02T11:38:17.773Z,649.00
2023-05-02T11:39:17.797Z,637.00
2023-05-02T11:40:17.744Z,634.00
2023-05-02T11:41:17.891Z,631.00
2023-05-02T11:42:17.914Z,632.00
2023-05-02T11:43:17.896Z,640.00
2023-05-02T11:44:17.991Z,625.00
2023-05-02T11:45:17.994Z,627.00
2023-05-02T11:46:18.118Z,632.00
2023-05-02T11:47:18.084Z,616.00
2023-05-02T11:48:18.179Z,620.00
2023-05-02T11:49:18.165Z,630.00
2023-05-02T11:50:18.410Z,617.00
2023-05-02T11:51:18.268Z,615.00
2023-05-02T11:52:18.325Z,604.00
2023-05-02T11:53:18.398Z,607.00
2023-05-02T11:54:18.553Z,617.00
2023-05-02T11:55:18.476Z,624.00
2023-05-02T11:56:18.572Z,627.00
2023-05-02T11:57:18.613Z,616.00
2023-05-02T11:58:18.717Z,627.00
2023-05-02T11:59:18.726Z,612.00
2023-05-02T12:00:18.773Z,592.00
2023-05-02T12:01:18.799Z,603.00
2023-05-02T12:02:18.890Z,604.00
2023-05-02T12:03:19.419Z,617.00
2023-05-02T12:04:19.054Z,612.00
2023-05-02T12:05:19.054Z,628.00
2023-05-02T12:06:19.818Z,614.00
2023-05-02T12:07:19.124Z,618.00
2023-05-02T12:08:19.379Z,619.00
2023-05-02T12:09:19.352Z,628.00
2023-05-02T12:10:19.299Z,628.00
2023-05-02T12:11:19.351Z,618.00
2023-05-02T12:12:19.417Z,600.00
2023-05-02T12:13:19.455Z,603.00
2023-05-02T12:14:19.486Z,611.00
2023-05-02T12:15:19.529Z,617.00
2023-05-02T12:16:19.785Z,614.00
2023-05-02T12:17:19.668Z,623.00
2023-05-02T12:18:21.503Z,621.00
2023-05-02T12:19:19.791Z,621.00
2023-05-02T12:20:19.847Z,629.00
2023-05-02T12:21:19.935Z,641.00
2023-05-02T12:22:19.948Z,630.00
2023-05-02T12:23:20.011Z,618.00
2023-05-02T12:24:20.099Z,620.00
2023-05-02T12:25:20.275Z,624.00
2023-05-02T12:26:20.257Z,633.00
2023-05-02T12:27:20.256Z,632.00
2023-05-02T12:28:20.296Z,644.00
2023-05-02T12:29:20.369Z,642.00
2023-05-02T12:30:20.355Z,650.00
2023-05-02T12:31:21.408Z,631.00
2023-05-02T12:32:20.480Z,622.00
2023-05-02T12:33:20.491Z,616.00
2023-05-02T12:34:20.556Z,621.00
2023-05-02T12:35:20.621Z,627.00
2023-05-02T12:36:20.727Z,642.00
2023-05-02T12:37:20.764Z,635.00
2023-05-02T12:38:20.797Z,644.00
2023-05-02T12:39:20.880Z,652.00
2023-05-02T12:40:20.973Z,639.00
2023-05-02T12:41:21.010Z,619.00
2023-05-02T12:42:21.066Z,601.00
2023-05-02T12:43:21.098Z,582.00
2023-05-02T12:44:21.147Z,593.00
2023-05-02T12:45:21.218Z,581.00
2023-05-02T12:46:21.318Z,578.00
2023-05-02T12:47:21.478Z,590.00
2023-05-02T12:48:21.320Z,591.00
2023-05-02T12:49:21.360Z,463.00
2023-05-02T12:50:21.347Z,475.00
2023-05-02T12:51:21.358Z,601.00
2023-05-02T12:52:21.329Z,761.00
2023-05-02T12:53:21.390Z,911.00
2023-05-02T12:54:21.374Z,943.00
2023-05-02T12:55:21.410Z,1092.00
2023-05-02T12:56:21.420Z,1201.00
2023-05-02T12:57:21.450Z,1249.00
2023-05-02T12:58:21.440Z,1294.00
2023-05-02T12:59:21.468Z,1281.00
2023-05-02T13:00:21.447Z,1266.00
2023-05-02T13:01:21.639Z,1263.00
2023-05-02T13:02:21.549Z,1247.00